Time,TemperatureF,DewpointF,PressureIn,WindDirection,WindDirectionDegrees,WindSpeedMPH,WindSpeedGustMPH,Humidity,HourlyPrecipIn,Conditions,Clouds,dailyrainin,SoftwareType,DateUTC
2013-02-04 13:22:00,12.0,3.0,29.92,WNW,290,7.0,-999.0,66,-99.99,,,-99.99,,2013-02-04 18:22:00,
2013-02-04 13:33:00,12.0,3.0,29.92,WNW,290,7.0,-999.0,66,-99.99,,,-99.99,,2013-02-04 18:33:00,
2013-02-04 13:42:00,12.0,3.0,29.92,WNW,290,7.0,-999.0,66,-99.99,,,-99.99,,2013-02-04 18:42:00,
2013-02-04 13:52:00,12.0,3.0,29.92,WNW,290,7.0,-999.0,66,-99.99,,,-99.99,,2013-02-04 18:52:00,
2013-02-04 14:02:00,12.0,3.0,29.92,WNW,290,7.0,-999.0,66,-99.99,,,-99.99,,2013-02-04 19:02:00,
2013-02-04 14:11:00,12.0,3.0,29.92,WNW,290,7.0,-999.0,66,-99.99,,,-99.99,,2013-02-04 19:11:00,
2013-02-04 16:12:00,18.0,-2.0,29.85,NW,310,10.0,16.0,40,-99.99,,,-99.99,,2013-02-04 21:12:00,
2013-02-04 16:23:00,16.0,-2.0,29.85,NW,320,10.0,-999.0,44,-99.99,,,-99.99,,2013-02-04 21:23:00,
2013-02-04 16:32:00,16.0,0.0,29.85,NW,320,8.0,-999.0,48,-99.99,,,-99.99,,2013-02-04 21:32:00,
2013-02-04 16:43:00,16.0,0.0,29.85,NW,320,10.0,-999.0,48,-99.99,,,-99.99,,2013-02-04 21:43:00,
2013-02-04 16:52:00,16.0,-2.0,29.85,NW,320,7.0,-999.0,44,-99.99,,,-99.99,,2013-02-04 21:52:00,
2013-02-04 17:03:00,16.0,-2.0,29.85,NW,320,7.0,-999.0,44,-99.99,,,-99.99,,2013-02-04 22:03:00,
2013-02-04 17:12:00,14.0,0.0,29.86,North,350,8.0,-999.0,52,-99.99,,,-99.99,,2013-02-04 22:12:00,
2013-02-04 17:21:00,12.0,0.0,29.86,North,360,7.0,-999.0,56,-99.99,,,-99.99,,2013-02-04 22:21:00,
2013-02-04 17:32:00,12.0,-2.0,29.86,North,350,6.0,-999.0,51,-99.99,,,-99.99,,2013-02-04 22:32:00,
2013-02-04 17:42:00,10.0,-2.0,29.87,North,350,7.0,-999.0,56,-99.99,,,-99.99,,2013-02-04 22:42:00,
2013-02-04 17:51:00,10.0,-2.0,29.87,NNE,30,5.0,-999.0,56,-99.99,,,-99.99,,2013-02-04 22:51:00,
2013-02-04 18:02:00,10.0,-2.0,29.87,NNE,30,5.0,-999.0,56,-99.99,,,-99.99,,2013-02-04 23:02:00,
2013-02-04 18:11:00,9.0,-2.0,29.88,North,10,3.0,-999.0,60,-99.99,,,-99.99,,2013-02-04 23:11:00,
2013-02-04 18:21:00,9.0,-2.0,29.88,North,0,0.0,-999.0,60,-99.99,,,-99.99,,2013-02-04 23:21:00,
2013-02-04 18:32:00,9.0,-2.0,29.89,North,0,0.0,-999.0,60,-99.99,,,-99.99,,2013-02-04 23:32:00,
2013-02-04 18:42:00,9.0,-2.0,29.89,North,0,0.0,-999.0,60,-99.99,,,-99.99,,2013-02-04 23:42:00,
2013-02-04 18:52:00,7.0,-2.0,29.89,North,0,0.0,-999.0,65,-99.99,,,-99.99,,2013-02-04 23:52:00,
2013-02-04 19:02:00,7.0,-2.0,29.89,North,0,0.0,-999.0,65,-99.99,,,-99.99,,2013-02-05 00:02:00,
2013-02-04 19:11:00,7.0,-2.0,29.89,North,0,0.0,-999.0,65,-99.99,,,-99.99,,2013-02-05 00:11:00,
2013-02-04 19:22:00,3.0,-2.0,29.90,North,0,0.0,-999.0,77,-99.99,,,-99.99,,2013-02-05 00:22:00,
2013-02-04 19:32:00,5.0,-2.0,29.90,North,0,0.0,-999.0,71,-99.99,,,-99.99,,2013-02-05 00:32:00,
2013-02-04 19:42:00,3.0,-2.0,29.90,North,0,0.0,-999.0,77,-99.99,,,-99.99,,2013-02-05 00:42:00,
2013-02-04 19:51:00,1.0,-4.0,29.90,North,0,0.0,-999.0,77,-99.99,,,-99.99,,2013-02-05 00:51:00,
2013-02-04 20:02:00,1.0,-4.0,29.90,North,0,0.0,-999.0,77,-99.99,,,-99.99,,2013-02-05 01:02:00,
2013-02-04 20:11:00,1.0,-4.0,29.91,North,0,0.0,-999.0,77,-99.99,,,-99.99,,2013-02-05 01:11:00,
2013-02-04 20:22:00,0.0,-4.0,29.91,North,0,0.0,-999.0,84,-99.99,,,-99.99,,2013-02-05 01:22:00,
2013-02-04 20:32:00,0.0,-4.0,29.91,North,0,0.0,-999.0,84,-99.99,,,-99.99,,2013-02-05 01:32:00,
2013-02-04 20:42:00,0.0,-6.0,29.91,North,0,0.0,-999.0,77,-99.99,,,-99.99,,2013-02-05 01:42:00,
2013-02-04 20:52:00,0.0,-4.0,29.91,North,0,0.0,-999.0,84,-99.99,,,-99.99,,2013-02-05 01:52:00,
2013-02-04 21:01:00,0.0,-4.0,29.91,North,0,0.0,-999.0,84,-99.99,,,-99.99,,2013-02-05 02:01:00,
2013-02-04 21:11:00,-2.0,-6.0,29.92,North,0,0.0,-999.0,84,-99.99,,,-99.99,,2013-02-05 02:11:00,
2013-02-04 21:22:00,-2.0,-6.0,29.92,North,0,0.0,-999.0,84,-99.99,,,-99.99,,2013-02-05 02:22:00,
2013-02-04 21:32:00,-2.0,-6.0,29.92,North,0,0.0,-999.0,84,-99.99,,,-99.99,,2013-02-05 02:32:00,
2013-02-04 21:42:00,-2.0,-6.0,29.92,North,0,0.0,-999.0,84,-99.99,,,-99.99,,2013-02-05 02:42:00,
2013-02-04 21:52:00,-2.0,-6.0,29.92,North,0,0.0,-999.0,84,-99.99,,,-99.99,,2013-02-05 02:52:00,
2013-02-04 22:02:00,-2.0,-6.0,29.92,North,0,0.0,-999.0,84,-99.99,,,-99.99,,2013-02-05 03:02:00,
2013-02-04 22:11:00,-6.0,-8.0,29.92,North,0,0.0,-999.0,91,-99.99,,,-99.99,,2013-02-05 03:11:00,
2013-02-04 22:21:00,-4.0,-8.0,29.92,North,0,0.0,-999.0,84,-99.99,,,-99.99,,2013-02-05 03:21:00,
2013-02-04 22:32:00,-4.0,-8.0,29.92,North,0,0.0,-999.0,84,-99.99,,,-99.99,,2013-02-05 03:32:00,
2013-02-04 22:42:00,-4.0,-8.0,29.92,North,0,0.0,-999.0,84,-99.99,,,-99.99,,2013-02-05 03:42:00,
2013-02-04 22:51:00,-6.0,-8.0,29.92,North,0,0.0,-999.0,91,-99.99,,,-99.99,,2013-02-05 03:51:00,
2013-02-04 23:01:00,-6.0,-8.0,29.92,North,0,0.0,-999.0,91,-99.99,,,-99.99,,2013-02-05 04:01:00,
2013-02-04 23:11:00,-6.0,-9.0,29.93,North,0,0.0,-999.0,83,-99.99,,,-99.99,,2013-02-05 04:11:00,
2013-02-04 23:21:00,-6.0,-9.0,29.93,North,0,0.0,-999.0,83,-99.99,,,-99.99,,2013-02-05 04:21:00,
2013-02-04 23:32:00,-8.0,-9.0,29.93,North,0,0.0,-999.0,91,-99.99,,,-99.99,,2013-02-05 04:32:00,
2013-02-04 23:42:00,-6.0,-9.0,29.93,South,190,3.0,-999.0,83,-99.99,,,-99.99,,2013-02-05 04:42:00,
2013-02-04 23:52:00,-8.0,-9.0,29.93,North,0,0.0,-999.0,91,-99.99,,,-99.99,,2013-02-05 04:52:00,